GLO2130 SBCY-SBPV
Flight info
| Callsign | GLO2130 |
|---|---|
| Flight time | N/A |
| Altitude | 36000 |
| Route | GETMA DCT NETBU DCT DUBGI DCT |
| Aircraft | B737/M-SDFGIKLORWXY/LB1 |
Departure
| Time | N/A |
|---|---|
| Airport | Várzea Grande–Marechal Rondon International Airport (SBCY) |
Arrival
| Time | 2026-04-25 04:40 |
|---|---|
| Airport | Governador Jorge Teixeira de Oliveira International Airport (SBPV) |
| Time | Latitude | Longitude | Altitude | Speed | Heading |
|---|---|---|---|---|---|
| 2026-04-25 03:07 | -15.51822 | -56.64904 | 23373 ft | 397 kts | 306° |
| 2026-04-25 03:07 | -15.50202 | -56.67199 | 23953 ft | 400 kts | 306° |
| 2026-04-25 03:07 | -15.48547 | -56.69544 | 24541 ft | 404 kts | 306° |
| 2026-04-25 03:08 | -15.46881 | -56.71903 | 25087 ft | 407 kts | 306° |
| 2026-04-25 03:08 | -15.45196 | -56.74289 | 25613 ft | 411 kts | 306° |
| 2026-04-25 03:08 | -15.43495 | -56.76695 | 26120 ft | 415 kts | 306° |
| 2026-04-25 03:08 | -15.41780 | -56.79121 | 26618 ft | 418 kts | 306° |
| 2026-04-25 03:09 | -15.40053 | -56.81565 | 27071 ft | 422 kts | 306° |
| 2026-04-25 03:09 | -15.38329 | -56.84002 | 27515 ft | 426 kts | 306° |
| 2026-04-25 03:09 | -15.36566 | -56.86494 | 27991 ft | 428 kts | 306° |
| 2026-04-25 03:09 | -15.34796 | -56.88994 | 28461 ft | 430 kts | 306° |
| 2026-04-25 03:10 | -15.33017 | -56.91507 | 28897 ft | 433 kts | 306° |
| 2026-04-25 03:10 | -15.31250 | -56.94002 | 29296 ft | 436 kts | 306° |
| 2026-04-25 03:10 | -15.29443 | -56.96553 | 29714 ft | 438 kts | 306° |
| 2026-04-25 03:10 | -15.27633 | -56.99106 | 30112 ft | 441 kts | 306° |
| 2026-04-25 03:11 | -15.25809 | -57.01679 | 30480 ft | 443 kts | 306° |
| 2026-04-25 03:11 | -15.23978 | -57.04261 | 30830 ft | 446 kts | 306° |
| 2026-04-25 03:11 | -15.22134 | -57.06861 | 31204 ft | 447 kts | 306° |
| 2026-04-25 03:11 | -15.20313 | -57.09426 | 31647 ft | 446 kts | 306° |
| 2026-04-25 03:12 | -15.18476 | -57.12014 | 32155 ft | 444 kts | 306° |
| 2026-04-25 03:12 | -15.16652 | -57.14583 | 32601 ft | 442 kts | 306° |
| 2026-04-25 03:12 | -15.14825 | -57.17154 | 32988 ft | 442 kts | 306° |
| 2026-04-25 03:12 | -15.13003 | -57.19719 | 33355 ft | 442 kts | 306° |
| 2026-04-25 03:13 | -15.11174 | -57.22292 | 33738 ft | 441 kts | 306° |
| 2026-04-25 03:13 | -15.09359 | -57.24844 | 34126 ft | 440 kts | 306° |
| 2026-04-25 03:13 | -15.07567 | -57.27364 | 34469 ft | 439 kts | 306° |
| 2026-04-25 03:13 | -15.05751 | -57.29917 | 34782 ft | 439 kts | 306° |
| 2026-04-25 03:14 | -15.03937 | -57.32464 | 35108 ft | 439 kts | 306° |
| 2026-04-25 03:14 | -15.02128 | -57.35005 | 35428 ft | 438 kts | 306° |
| 2026-04-25 03:14 | -15.00318 | -57.37547 | 35736 ft | 437 kts | 306° |
| 2026-04-25 03:14 | -14.98510 | -57.40085 | 36009 ft | 438 kts | 306° |
| 2026-04-25 03:15 | -14.94884 | -57.45173 | 36002 ft | 443 kts | 306° |
| 2026-04-25 03:15 | -14.91236 | -57.50286 | 35989 ft | 437 kts | 306° |
| 2026-04-25 03:16 | -14.87661 | -57.55295 | 36005 ft | 435 kts | 306° |
| 2026-04-25 03:16 | -14.84065 | -57.60331 | 36004 ft | 435 kts | 306° |
| 2026-04-25 03:17 | -14.80457 | -57.65380 | 36007 ft | 435 kts | 306° |
| 2026-04-25 03:17 | -14.76873 | -57.70392 | 36005 ft | 436 kts | 306° |
| 2026-04-25 03:18 | -14.73268 | -57.75430 | 36002 ft | 436 kts | 306° |
| 2026-04-25 03:18 | -14.69652 | -57.80480 | 36003 ft | 436 kts | 306° |
| 2026-04-25 03:19 | -14.66056 | -57.85499 | 36000 ft | 437 kts | 306° |
| 2026-04-25 03:19 | -14.62432 | -57.90555 | 36003 ft | 437 kts | 306° |
| 2026-04-25 03:20 | -14.58808 | -57.95608 | 36003 ft | 437 kts | 306° |
| 2026-04-25 03:20 | -14.55200 | -58.00635 | 35997 ft | 438 kts | 306° |
| 2026-04-25 03:21 | -14.51559 | -58.05704 | 36002 ft | 438 kts | 306° |
| 2026-04-25 03:21 | -14.47937 | -58.10744 | 36001 ft | 439 kts | 306° |
| 2026-04-25 03:22 | -14.44298 | -58.15807 | 36003 ft | 439 kts | 306° |
| 2026-04-25 03:22 | -14.40646 | -58.20883 | 36002 ft | 440 kts | 306° |
| 2026-04-25 03:23 | -14.36849 | -58.25842 | 36005 ft | 440 kts | 310° |
| 2026-04-25 03:23 | -14.32867 | -58.30595 | 35999 ft | 441 kts | 311° |
| 2026-04-25 03:24 | -14.28843 | -58.35374 | 36002 ft | 441 kts | 310° |
| 2026-04-25 03:24 | -14.24843 | -58.40175 | 36001 ft | 441 kts | 310° |
| 2026-04-25 03:25 | -14.20853 | -58.44990 | 36003 ft | 441 kts | 310° |
| 2026-04-25 03:25 | -14.16887 | -58.49783 | 36000 ft | 441 kts | 310° |
| 2026-04-25 03:26 | -14.12899 | -58.54599 | 36001 ft | 441 kts | 310° |
| 2026-04-25 03:26 | -14.08912 | -58.59410 | 36000 ft | 441 kts | 310° |
| 2026-04-25 03:27 | -14.04952 | -58.64185 | 36000 ft | 441 kts | 310° |
| 2026-04-25 03:27 | -14.00963 | -58.68991 | 35998 ft | 440 kts | 310° |
| 2026-04-25 03:28 | -13.96975 | -58.73794 | 35999 ft | 440 kts | 310° |
| 2026-04-25 03:28 | -13.93017 | -58.78559 | 36002 ft | 440 kts | 310° |
| 2026-04-25 03:29 | -13.89038 | -58.83346 | 35999 ft | 439 kts | 310° |
| 2026-04-25 03:29 | -13.85079 | -58.88106 | 36002 ft | 439 kts | 310° |
| 2026-04-25 03:30 | -13.81102 | -58.92884 | 36006 ft | 439 kts | 310° |
| 2026-04-25 03:30 | -13.77128 | -58.97657 | 36003 ft | 439 kts | 310° |
| 2026-04-25 03:31 | -13.73174 | -59.02403 | 36002 ft | 438 kts | 310° |
| 2026-04-25 03:31 | -13.69182 | -59.07192 | 35998 ft | 438 kts | 310° |
| 2026-04-25 03:32 | -13.65230 | -59.11929 | 36000 ft | 438 kts | 310° |
| 2026-04-25 03:32 | -13.61256 | -59.16691 | 35999 ft | 438 kts | 310° |
| 2026-04-25 03:33 | -13.57950 | -59.20650 | 36001 ft | 438 kts | 310° |
| 2026-04-25 03:33 | -13.53328 | -59.26183 | 36004 ft | 438 kts | 310° |
| 2026-04-25 03:34 | -13.50020 | -59.30139 | 36001 ft | 438 kts | 310° |
| 2026-04-25 03:34 | -13.46039 | -59.34899 | 36000 ft | 438 kts | 310° |
| 2026-04-25 03:35 | -13.41416 | -59.40423 | 36000 ft | 438 kts | 310° |
| 2026-04-25 03:35 | -13.38089 | -59.44397 | 35999 ft | 438 kts | 310° |
| 2026-04-25 03:36 | -13.34126 | -59.49127 | 36005 ft | 438 kts | 310° |
| 2026-04-25 03:36 | -13.30151 | -59.53869 | 35999 ft | 438 kts | 310° |
| 2026-04-25 03:37 | -13.25518 | -59.59393 | 36000 ft | 438 kts | 310° |
| 2026-04-25 03:37 | -13.22205 | -59.63340 | 36001 ft | 438 kts | 310° |
| 2026-04-25 03:38 | -13.18223 | -59.68084 | 36002 ft | 438 kts | 310° |
| 2026-04-25 03:38 | -13.14240 | -59.72825 | 35999 ft | 438 kts | 310° |
| 2026-04-25 03:39 | -13.10276 | -59.77540 | 36005 ft | 438 kts | 310° |
| 2026-04-25 03:39 | -13.06291 | -59.82280 | 36004 ft | 438 kts | 310° |
| 2026-04-25 03:40 | -13.02298 | -59.87025 | 36004 ft | 438 kts | 310° |
| 2026-04-25 03:40 | -12.98305 | -59.91768 | 36002 ft | 438 kts | 310° |
| 2026-04-25 03:41 | -12.94336 | -59.96479 | 36000 ft | 438 kts | 310° |
| 2026-04-25 03:41 | -12.90346 | -60.01214 | 36003 ft | 438 kts | 310° |
| 2026-04-25 03:42 | -12.86353 | -60.05949 | 36001 ft | 438 kts | 310° |
| 2026-04-25 03:42 | -12.82387 | -60.10651 | 36000 ft | 439 kts | 310° |
| 2026-04-25 03:43 | -12.78391 | -60.15384 | 36000 ft | 439 kts | 310° |
| 2026-04-25 03:43 | -12.74392 | -60.20119 | 36000 ft | 438 kts | 310° |
| 2026-04-25 03:44 | -12.70422 | -60.24817 | 35999 ft | 438 kts | 310° |
| 2026-04-25 03:44 | -12.66418 | -60.29554 | 36004 ft | 438 kts | 310° |
| 2026-04-25 03:45 | -12.62421 | -60.34279 | 36005 ft | 438 kts | 310° |
| 2026-04-25 03:45 | -12.58447 | -60.38974 | 36001 ft | 438 kts | 310° |
| 2026-04-25 03:46 | -12.54450 | -60.43695 | 36001 ft | 438 kts | 310° |
| 2026-04-25 03:46 | -12.50472 | -60.48390 | 36005 ft | 438 kts | 310° |
| 2026-04-25 03:47 | -12.46478 | -60.53103 | 36002 ft | 438 kts | 310° |
| 2026-04-25 03:47 | -12.42481 | -60.57816 | 36003 ft | 437 kts | 310° |
| 2026-04-25 03:48 | -12.38517 | -60.62488 | 36001 ft | 437 kts | 310° |
| 2026-04-25 03:48 | -12.34520 | -60.67197 | 36000 ft | 437 kts | 310° |
| 2026-04-25 03:49 | -12.30533 | -60.71891 | 36003 ft | 436 kts | 311° |
| 2026-04-25 03:49 | -12.26572 | -60.76553 | 36001 ft | 436 kts | 311° |
| 2026-04-25 03:50 | -12.22590 | -60.81238 | 36001 ft | 436 kts | 311° |
| 2026-04-25 03:50 | -12.18605 | -60.85924 | 36001 ft | 436 kts | 311° |
| 2026-04-25 03:51 | -12.14431 | -60.90403 | 36002 ft | 435 kts | 318° |
| 2026-04-25 03:51 | -12.09853 | -60.94410 | 35997 ft | 435 kts | 320° |
| 2026-04-25 03:52 | -12.05200 | -60.98403 | 36001 ft | 435 kts | 319° |
| 2026-04-25 03:52 | -12.00613 | -61.02389 | 36001 ft | 435 kts | 319° |
| 2026-04-25 03:53 | -11.96005 | -61.06430 | 35999 ft | 435 kts | 319° |
| 2026-04-25 03:53 | -11.91404 | -61.10477 | 36000 ft | 436 kts | 319° |
| 2026-04-25 03:54 | -11.86833 | -61.14495 | 36001 ft | 436 kts | 319° |
| 2026-04-25 03:54 | -11.82234 | -61.18536 | 36000 ft | 436 kts | 319° |
| 2026-04-25 03:55 | -11.77656 | -61.22555 | 36002 ft | 436 kts | 319° |
| 2026-04-25 03:55 | -11.73051 | -61.26597 | 36003 ft | 436 kts | 319° |
| 2026-04-25 03:56 | -11.68446 | -61.30636 | 36000 ft | 436 kts | 319° |
| 2026-04-25 03:56 | -11.63875 | -61.34644 | 35999 ft | 436 kts | 319° |
| 2026-04-25 03:57 | -11.59268 | -61.38682 | 36000 ft | 436 kts | 319° |
| 2026-04-25 03:57 | -11.54665 | -61.42714 | 36003 ft | 436 kts | 319° |
| 2026-04-25 03:58 | -11.50088 | -61.46722 | 36004 ft | 436 kts | 319° |
| 2026-04-25 03:58 | -11.45479 | -61.50756 | 36001 ft | 436 kts | 319° |
| 2026-04-25 03:59 | -11.40877 | -61.54782 | 36000 ft | 435 kts | 319° |
| 2026-04-25 03:59 | -11.36273 | -61.58807 | 36004 ft | 435 kts | 319° |
| 2026-04-25 04:00 | -11.31671 | -61.62830 | 36001 ft | 435 kts | 319° |
| 2026-04-25 04:00 | -11.27093 | -61.66830 | 35999 ft | 435 kts | 319° |
| 2026-04-25 04:01 | -11.22489 | -61.70850 | 36003 ft | 435 kts | 319° |
| 2026-04-25 04:01 | -11.17911 | -61.74846 | 36003 ft | 435 kts | 319° |
| 2026-04-25 04:02 | -11.13301 | -61.78869 | 36002 ft | 435 kts | 319° |
| 2026-04-25 04:02 | -11.08718 | -61.82867 | 36000 ft | 435 kts | 319° |
| 2026-04-25 04:03 | -11.04112 | -61.86881 | 36000 ft | 435 kts | 319° |
| 2026-04-25 04:03 | -10.99504 | -61.90897 | 36003 ft | 435 kts | 319° |
| 2026-04-25 04:04 | -10.94935 | -61.94877 | 36000 ft | 435 kts | 319° |
| 2026-04-25 04:04 | -10.90333 | -61.98884 | 36000 ft | 435 kts | 319° |
| 2026-04-25 04:05 | -10.85721 | -62.02898 | 35999 ft | 435 kts | 319° |
| 2026-04-25 04:05 | -10.81141 | -62.06882 | 36001 ft | 435 kts | 319° |
| 2026-04-25 04:06 | -10.76540 | -62.10884 | 36003 ft | 435 kts | 319° |
| 2026-04-25 04:06 | -10.71971 | -62.14855 | 36000 ft | 434 kts | 319° |
| 2026-04-25 04:07 | -10.67375 | -62.18848 | 36004 ft | 434 kts | 319° |
| 2026-04-25 04:07 | -10.62772 | -62.22846 | 36000 ft | 434 kts | 319° |
| 2026-04-25 04:08 | -10.58195 | -62.26819 | 36004 ft | 435 kts | 319° |
| 2026-04-25 04:08 | -10.53584 | -62.30821 | 36004 ft | 435 kts | 319° |
| 2026-04-25 04:09 | -10.48975 | -62.34819 | 36000 ft | 435 kts | 319° |
| 2026-04-25 04:09 | -10.44398 | -62.38789 | 36001 ft | 435 kts | 319° |
| 2026-04-25 04:10 | -10.39788 | -62.42784 | 36000 ft | 435 kts | 319° |
| 2026-04-25 04:10 | -10.35190 | -62.46768 | 36000 ft | 434 kts | 319° |
| 2026-04-25 04:11 | -10.28308 | -62.52730 | 35999 ft | 434 kts | 319° |
| 2026-04-25 04:12 | -10.23704 | -62.56716 | 36001 ft | 434 kts | 319° |
| 2026-04-25 04:12 | -10.18940 | -62.60453 | 36005 ft | 434 kts | 324° |
| 2026-04-25 04:13 | -10.14004 | -62.64006 | 36000 ft | 435 kts | 324° |
| 2026-04-25 04:13 | -10.09059 | -62.67559 | 36000 ft | 435 kts | 324° |
| 2026-04-25 04:14 | -10.04162 | -62.71113 | 35910 ft | 436 kts | 324° |
| 2026-04-25 04:14 | -10.01671 | -62.72928 | 35397 ft | 438 kts | 324° |
| 2026-04-25 04:14 | -9.99208 | -62.74725 | 34949 ft | 434 kts | 324° |
| 2026-04-25 04:14 | -9.96796 | -62.76486 | 34478 ft | 430 kts | 324° |
| 2026-04-25 04:15 | -9.94373 | -62.78255 | 34009 ft | 426 kts | 324° |
| 2026-04-25 04:15 | -9.91969 | -62.80009 | 33543 ft | 423 kts | 324° |
| 2026-04-25 04:15 | -9.89585 | -62.81748 | 33081 ft | 420 kts | 324° |
| 2026-04-25 04:15 | -9.87219 | -62.83474 | 32619 ft | 416 kts | 324° |
| 2026-04-25 04:16 | -9.84906 | -62.85160 | 32171 ft | 413 kts | 324° |
| 2026-04-25 04:16 | -9.82574 | -62.86861 | 31719 ft | 410 kts | 324° |
| 2026-04-25 04:16 | -9.80259 | -62.88548 | 31270 ft | 408 kts | 324° |
| 2026-04-25 04:16 | -9.77965 | -62.90220 | 30824 ft | 405 kts | 324° |
| 2026-04-25 04:17 | -9.75681 | -62.91884 | 30382 ft | 402 kts | 324° |
| 2026-04-25 04:17 | -9.73416 | -62.93534 | 29951 ft | 399 kts | 324° |
| 2026-04-25 04:17 | -9.71194 | -62.95152 | 29507 ft | 396 kts | 324° |
| 2026-04-25 04:17 | -9.68960 | -62.96779 | 29042 ft | 393 kts | 324° |
| 2026-04-25 04:18 | -9.66743 | -62.98394 | 28582 ft | 390 kts | 324° |
| 2026-04-25 04:18 | -9.64543 | -62.99995 | 28121 ft | 387 kts | 324° |
| 2026-04-25 04:18 | -9.62358 | -63.01586 | 27664 ft | 384 kts | 324° |
| 2026-04-25 04:18 | -9.60213 | -63.03146 | 27213 ft | 381 kts | 324° |
| 2026-04-25 04:19 | -9.58061 | -63.04713 | 26762 ft | 379 kts | 324° |
| 2026-04-25 04:19 | -9.55930 | -63.06263 | 26311 ft | 376 kts | 324° |
| 2026-04-25 04:19 | -9.53810 | -63.07805 | 25873 ft | 373 kts | 324° |
| 2026-04-25 04:19 | -9.51706 | -63.09336 | 25436 ft | 370 kts | 324° |
| 2026-04-25 04:20 | -9.49613 | -63.10858 | 24987 ft | 367 kts | 324° |
| 2026-04-25 04:20 | -9.47561 | -63.12350 | 24565 ft | 364 kts | 324° |
| 2026-04-25 04:20 | -9.45508 | -63.13842 | 24132 ft | 362 kts | 324° |
| 2026-04-25 04:20 | -9.43470 | -63.15324 | 23708 ft | 359 kts | 324° |
| 2026-04-25 04:21 | -9.41470 | -63.16777 | 23266 ft | 356 kts | 324° |
| 2026-04-25 04:21 | -9.39455 | -63.18241 | 22851 ft | 354 kts | 324° |
| 2026-04-25 04:21 | -9.37459 | -63.19691 | 22422 ft | 351 kts | 324° |
| 2026-04-25 04:21 | -9.35478 | -63.21131 | 21995 ft | 348 kts | 324° |
| 2026-04-25 04:22 | -9.33507 | -63.22562 | 21569 ft | 346 kts | 324° |
| 2026-04-25 04:22 | -9.31586 | -63.23958 | 21153 ft | 343 kts | 324° |
| 2026-04-25 04:22 | -9.29647 | -63.25366 | 20731 ft | 341 kts | 324° |
| 2026-04-25 04:22 | -9.27726 | -63.26760 | 20313 ft | 339 kts | 324° |
| 2026-04-25 04:23 | -9.25813 | -63.28149 | 19895 ft | 336 kts | 324° |
| 2026-04-25 04:23 | -9.23919 | -63.29524 | 19480 ft | 334 kts | 324° |
| 2026-04-25 04:23 | -9.22038 | -63.30889 | 19064 ft | 332 kts | 324° |
| 2026-04-25 04:23 | -9.20186 | -63.32233 | 18661 ft | 329 kts | 324° |
| 2026-04-25 04:24 | -9.18327 | -63.33582 | 18249 ft | 327 kts | 324° |
| 2026-04-25 04:24 | -9.16488 | -63.34916 | 17842 ft | 325 kts | 324° |
| 2026-04-25 04:24 | -9.14654 | -63.36246 | 17435 ft | 323 kts | 324° |
| 2026-04-25 04:24 | -9.13447 | -63.37122 | 17166 ft | 321 kts | 324° |
| 2026-04-25 04:25 | -9.11632 | -63.38438 | 16763 ft | 319 kts | 324° |
| 2026-04-25 04:25 | -9.09830 | -63.39744 | 16359 ft | 317 kts | 324° |
| 2026-04-25 04:25 | -9.08041 | -63.41042 | 15957 ft | 315 kts | 324° |
| 2026-04-25 04:25 | -9.06263 | -63.42330 | 15557 ft | 313 kts | 324° |
| 2026-04-25 04:26 | -9.04501 | -63.43608 | 15160 ft | 311 kts | 324° |
| 2026-04-25 04:26 | -9.02764 | -63.44867 | 14762 ft | 309 kts | 324° |
| 2026-04-25 04:26 | -9.01025 | -63.46127 | 14373 ft | 307 kts | 324° |
| 2026-04-25 04:26 | -8.99292 | -63.47383 | 13972 ft | 305 kts | 324° |
| 2026-04-25 04:27 | -8.97573 | -63.48629 | 13587 ft | 303 kts | 324° |
| 2026-04-25 04:27 | -8.95864 | -63.49866 | 13189 ft | 301 kts | 324° |
| 2026-04-25 04:27 | -8.94164 | -63.51098 | 12796 ft | 299 kts | 324° |
| 2026-04-25 04:27 | -8.92476 | -63.52320 | 12400 ft | 297 kts | 324° |
| 2026-04-25 04:28 | -8.90796 | -63.53537 | 12016 ft | 296 kts | 324° |
| 2026-04-25 04:28 | -8.89125 | -63.54747 | 11628 ft | 294 kts | 324° |
| 2026-04-25 04:28 | -8.87484 | -63.55935 | 11243 ft | 292 kts | 324° |
| 2026-04-25 04:28 | -8.85837 | -63.57127 | 10861 ft | 290 kts | 324° |
| 2026-04-25 04:29 | -8.84196 | -63.58315 | 10476 ft | 289 kts | 324° |
| 2026-04-25 04:29 | -8.82566 | -63.59495 | 10162 ft | 284 kts | 324° |
| 2026-04-25 04:29 | -8.80993 | -63.60634 | 10046 ft | 273 kts | 324° |
| 2026-04-25 04:29 | -8.79480 | -63.61728 | 9753 ft | 270 kts | 324° |
| 2026-04-25 04:30 | -8.77956 | -63.62831 | 9433 ft | 268 kts | 324° |
| 2026-04-25 04:30 | -8.76443 | -63.63926 | 9101 ft | 266 kts | 324° |
| 2026-04-25 04:30 | -8.74935 | -63.65017 | 8776 ft | 265 kts | 324° |
| 2026-04-25 04:30 | -8.73459 | -63.66085 | 8452 ft | 263 kts | 324° |
| 2026-04-25 04:31 | -8.71971 | -63.67161 | 8124 ft | 262 kts | 324° |
| 2026-04-25 04:31 | -8.70489 | -63.68233 | 7798 ft | 260 kts | 324° |
| 2026-04-25 04:31 | -8.69020 | -63.69295 | 7470 ft | 259 kts | 324° |
| 2026-04-25 04:31 | -8.67558 | -63.70352 | 7151 ft | 258 kts | 324° |
| 2026-04-25 04:32 | -8.66099 | -63.71407 | 6826 ft | 257 kts | 324° |
| 2026-04-25 04:32 | -8.64645 | -63.72459 | 6495 ft | 256 kts | 324° |
| 2026-04-25 04:32 | -8.63217 | -63.73491 | 6179 ft | 255 kts | 324° |
| 2026-04-25 04:32 | -8.61777 | -63.74532 | 5880 ft | 253 kts | 324° |
| 2026-04-25 04:33 | -8.60376 | -63.75545 | 5781 ft | 242 kts | 324° |
| 2026-04-25 04:33 | -8.59032 | -63.76516 | 5664 ft | 233 kts | 324° |
| 2026-04-25 04:33 | -8.57739 | -63.77450 | 5568 ft | 223 kts | 324° |
| 2026-04-25 04:33 | -8.56501 | -63.78345 | 5476 ft | 213 kts | 324° |
| 2026-04-25 04:34 | -8.55298 | -63.79214 | 5404 ft | 212 kts | 324° |
| 2026-04-25 04:34 | -8.54090 | -63.80086 | 5200 ft | 218 kts | 324° |
| 2026-04-25 04:34 | -8.52964 | -63.81104 | 4933 ft | 217 kts | 300° |
| 2026-04-25 04:34 | -8.52597 | -63.82539 | 4751 ft | 211 kts | 270° |
| 2026-04-25 04:35 | -8.52623 | -63.83522 | 4585 ft | 212 kts | 266° |
| 2026-04-25 04:35 | -8.52703 | -63.84755 | 4366 ft | 212 kts | 266° |
| 2026-04-25 04:35 | -8.52804 | -63.86227 | 4135 ft | 213 kts | 266° |
| 2026-04-25 04:35 | -8.52901 | -63.87717 | 3894 ft | 210 kts | 266° |
| 2026-04-25 04:36 | -8.52992 | -63.89174 | 3642 ft | 205 kts | 266° |
| 2026-04-25 04:36 | -8.53256 | -63.90560 | 3368 ft | 199 kts | 239° |
| 2026-04-25 04:36 | -8.54308 | -63.91338 | 3179 ft | 186 kts | 188° |
| 2026-04-25 04:36 | -8.55533 | -63.91214 | 3063 ft | 174 kts | 172° |
| 2026-04-25 04:37 | -8.56700 | -63.91091 | 2856 ft | 169 kts | 176° |
| 2026-04-25 04:37 | -8.57896 | -63.91012 | 2644 ft | 175 kts | 177° |
| 2026-04-25 04:37 | -8.59134 | -63.90937 | 2397 ft | 178 kts | 177° |
| 2026-04-25 04:37 | -8.60341 | -63.90865 | 2157 ft | 167 kts | 177° |
| 2026-04-25 04:38 | -8.61453 | -63.90798 | 1983 ft | 151 kts | 177° |
| 2026-04-25 04:38 | -8.62467 | -63.90737 | 1741 ft | 142 kts | 177° |
| 2026-04-25 04:38 | -8.63450 | -63.90678 | 1566 ft | 142 kts | 177° |
| 2026-04-25 04:38 | -8.64417 | -63.90620 | 1384 ft | 142 kts | 177° |
| 2026-04-25 04:39 | -8.65399 | -63.90561 | 1196 ft | 141 kts | 177° |
| 2026-04-25 04:39 | -8.66377 | -63.90503 | 1008 ft | 140 kts | 177° |
| 2026-04-25 04:39 | -8.67348 | -63.90442 | 807 ft | 139 kts | 177° |
| 2026-04-25 04:39 | -8.68298 | -63.90385 | 627 ft | 139 kts | 177° |
| 2026-04-25 04:40 | -8.69263 | -63.90332 | 456 ft | 139 kts | 178° |
| 2026-04-25 04:40 | -8.70228 | -63.90272 | 307 ft | 138 kts | 178° |
| 2026-04-25 04:40 | -8.71043 | -63.90223 | 299 ft | 88 kts | 176° |
| 2026-04-25 04:40 | -8.71382 | -63.90202 | 303 ft | 18 kts | 168° |
| 2026-04-25 04:41 | -8.71421 | -63.90151 | 301 ft | 8 kts | 96° |
| 2026-04-25 04:41 | -8.71418 | -63.90096 | 301 ft | 8 kts | 86° |
| 2026-04-25 04:41 | -8.71425 | -63.90043 | 298 ft | 8 kts | 102° |
| 2026-04-25 04:41 | -8.71424 | -63.89992 | 298 ft | 4 kts | 86° |
| 2026-04-25 04:42 | -8.71422 | -63.89965 | 298 ft | 4 kts | 86° |
| 2026-04-25 04:42 | -8.71421 | -63.89946 | 298 ft | 2 kts | 85° |
| 2026-04-25 04:42 | -8.71420 | -63.89936 | 298 ft | 1 kts | 86° |
| 2026-04-25 04:42 | -8.71420 | -63.89929 | 298 ft | 0 kts | 85° |